sensor_id;sensor_type;location;lat;lon;timestamp;P1;durP1;ratioP1;P2;durP2;ratioP2
52318;SDS011;38258;51.148;14.068;2022-09-09T00:00:25;3.75;;;2.80;;
52318;SDS011;38258;51.148;14.068;2022-09-09T00:02:57;2.72;;;1.90;;
52318;SDS011;38258;51.148;14.068;2022-09-09T00:05:30;3.97;;;2.40;;
52318;SDS011;38258;51.148;14.068;2022-09-09T00:08:06;3.63;;;2.05;;
52318;SDS011;38258;51.148;14.068;2022-09-09T00:10:42;3.13;;;2.15;;
52318;SDS011;38258;51.148;14.068;2022-09-09T00:13:13;3.28;;;2.15;;
52318;SDS011;38258;51.148;14.068;2022-09-09T00:15:47;3.22;;;2.05;;
52318;SDS011;38258;51.148;14.068;2022-09-09T00:18:24;2.72;;;1.98;;
52318;SDS011;38258;51.148;14.068;2022-09-09T00:20:55;2.47;;;1.90;;
52318;SDS011;38258;51.148;14.068;2022-09-09T00:23:32;2.28;;;1.67;;
52318;SDS011;38258;51.148;14.068;2022-09-09T00:26:07;2.75;;;1.95;;
52318;SDS011;38258;51.148;14.068;2022-09-09T00:28:39;3.22;;;1.80;;
52318;SDS011;38258;51.148;14.068;2022-09-09T00:31:13;2.25;;;1.80;;
52318;SDS011;38258;51.148;14.068;2022-09-09T00:33:43;2.47;;;1.80;;
52318;SDS011;38258;51.148;14.068;2022-09-09T00:36:13;3.13;;;2.13;;
52318;SDS011;38258;51.148;14.068;2022-09-09T00:38:44;3.40;;;1.80;;
52318;SDS011;38258;51.148;14.068;2022-09-09T00:41:17;2.60;;;1.70;;
52318;SDS011;38258;51.148;14.068;2022-09-09T00:43:51;2.70;;;1.80;;
52318;SDS011;38258;51.148;14.068;2022-09-09T00:46:41;3.95;;;2.00;;
52318;SDS011;38258;51.148;14.068;2022-09-09T00:49:23;3.35;;;1.80;;
52318;SDS011;38258;51.148;14.068;2022-09-09T00:52:03;2.63;;;1.83;;
52318;SDS011;38258;51.148;14.068;2022-09-09T00:54:48;2.88;;;1.65;;
52318;SDS011;38258;51.148;14.068;2022-09-09T00:57:25;2.05;;;1.67;;
52318;SDS011;38258;51.148;14.068;2022-09-09T00:59:59;3.28;;;1.60;;
52318;SDS011;38258;51.148;14.068;2022-09-09T01:02:45;5.03;;;2.00;;
52318;SDS011;38258;51.148;14.068;2022-09-09T01:05:22;3.65;;;1.77;;
52318;SDS011;38258;51.148;14.068;2022-09-09T01:07:57;3.22;;;1.95;;
52318;SDS011;38258;51.148;14.068;2022-09-09T01:10:30;2.72;;;1.90;;
52318;SDS011;38258;51.148;14.068;2022-09-09T01:13:08;2.33;;;1.77;;
52318;SDS011;38258;51.148;14.068;2022-09-09T01:15:41;2.58;;;1.80;;
52318;SDS011;38258;51.148;14.068;2022-09-09T01:18:13;4.00;;;1.88;;
52318;SDS011;38258;51.148;14.068;2022-09-09T01:20:45;2.35;;;1.73;;
52318;SDS011;38258;51.148;14.068;2022-09-09T01:26:36;2.30;;;1.52;;
52318;SDS011;38258;51.148;14.068;2022-09-09T01:29:12;3.05;;;2.00;;
52318;SDS011;38258;51.148;14.068;2022-09-09T01:31:42;2.78;;;1.80;;
52318;SDS011;38258;51.148;14.068;2022-09-09T01:34:20;3.05;;;1.90;;
52318;SDS011;38258;51.148;14.068;2022-09-09T01:36:49;2.22;;;1.80;;
52318;SDS011;38258;51.148;14.068;2022-09-09T01:39:23;2.25;;;1.75;;
52318;SDS011;38258;51.148;14.068;2022-09-09T01:42:00;4.00;;;1.90;;
52318;SDS011;38258;51.148;14.068;2022-09-09T01:44:28;3.20;;;1.67;;
52318;SDS011;38258;51.148;14.068;2022-09-09T01:46:57;3.08;;;1.92;;
52318;SDS011;38258;51.148;14.068;2022-09-09T01:49:24;2.63;;;1.63;;
52318;SDS011;38258;51.148;14.068;2022-09-09T01:51:52;2.80;;;1.92;;
52318;SDS011;38258;51.148;14.068;2022-09-09T01:54:29;3.67;;;2.13;;
52318;SDS011;38258;51.148;14.068;2022-09-09T01:57:06;2.42;;;1.70;;
52318;SDS011;38258;51.148;14.068;2022-09-09T01:59:45;2.10;;;1.60;;
52318;SDS011;38258;51.148;14.068;2022-09-09T02:02:22;3.60;;;1.80;;
52318;SDS011;38258;51.148;14.068;2022-09-09T02:05:16;2.72;;;1.60;;
52318;SDS011;38258;51.148;14.068;2022-09-09T02:07:50;2.55;;;1.70;;
52318;SDS011;38258;51.148;14.068;2022-09-09T02:10:36;2.80;;;1.88;;
52318;SDS011;38258;51.148;14.068;2022-09-09T02:13:17;3.63;;;1.90;;
52318;SDS011;38258;51.148;14.068;2022-09-09T02:15:47;2.33;;;1.50;;
52318;SDS011;38258;51.148;14.068;2022-09-09T02:18:24;2.53;;;1.60;;
52318;SDS011;38258;51.148;14.068;2022-09-09T02:20:55;3.30;;;1.70;;
52318;SDS011;38258;51.148;14.068;2022-09-09T02:23:24;2.70;;;1.67;;
52318;SDS011;38258;51.148;14.068;2022-09-09T02:25:54;2.45;;;1.60;;
52318;SDS011;38258;51.148;14.068;2022-09-09T02:28:26;2.50;;;1.58;;
52318;SDS011;38258;51.148;14.068;2022-09-09T02:30:56;2.47;;;1.83;;
52318;SDS011;38258;51.148;14.068;2022-09-09T02:33:30;2.67;;;1.88;;
52318;SDS011;38258;51.148;14.068;2022-09-09T02:36:03;3.17;;;2.00;;
52318;SDS011;38258;51.148;14.068;2022-09-09T02:38:33;2.45;;;1.65;;
52318;SDS011;38258;51.148;14.068;2022-09-09T02:41:08;2.25;;;1.58;;
52318;SDS011;38258;51.148;14.068;2022-09-09T02:43:37;3.20;;;2.08;;
52318;SDS011;38258;51.148;14.068;2022-09-09T02:46:12;3.50;;;2.00;;
52318;SDS011;38258;51.148;14.068;2022-09-09T02:48:56;2.08;;;1.60;;
52318;SDS011;38258;51.148;14.068;2022-09-09T02:51:32;2.55;;;1.77;;
52318;SDS011;38258;51.148;14.068;2022-09-09T02:54:09;2.58;;;1.60;;
52318;SDS011;38258;51.148;14.068;2022-09-09T02:56:44;3.03;;;1.90;;
52318;SDS011;38258;51.148;14.068;2022-09-09T02:59:18;2.47;;;1.52;;
52318;SDS011;38258;51.148;14.068;2022-09-09T03:01:45;2.30;;;1.60;;
52318;SDS011;38258;51.148;14.068;2022-09-09T03:04:13;3.97;;;1.60;;
52318;SDS011;38258;51.148;14.068;2022-09-09T03:06:40;2.38;;;1.60;;
52318;SDS011;38258;51.148;14.068;2022-09-09T03:09:16;5.78;;;1.80;;
52318;SDS011;38258;51.148;14.068;2022-09-09T03:11:43;7.05;;;1.80;;
52318;SDS011;38258;51.148;14.068;2022-09-09T03:14:12;2.50;;;1.90;;
52318;SDS011;38258;51.148;14.068;2022-09-09T03:16:41;2.15;;;1.60;;
52318;SDS011;38258;51.148;14.068;2022-09-09T03:19:09;2.45;;;1.65;;
52318;SDS011;38258;51.148;14.068;2022-09-09T03:21:36;2.25;;;1.60;;
52318;SDS011;38258;51.148;14.068;2022-09-09T03:24:04;3.00;;;2.00;;
52318;SDS011;38258;51.148;14.068;2022-09-09T03:26:32;2.90;;;1.90;;
52318;SDS011;38258;51.148;14.068;2022-09-09T03:29:00;2.92;;;1.60;;
52318;SDS011;38258;51.148;14.068;2022-09-09T03:31:28;3.72;;;1.70;;
52318;SDS011;38258;51.148;14.068;2022-09-09T03:33:58;2.55;;;1.67;;
52318;SDS011;38258;51.148;14.068;2022-09-09T03:36:29;2.53;;;1.77;;
52318;SDS011;38258;51.148;14.068;2022-09-09T03:38:56;2.92;;;1.70;;
52318;SDS011;38258;51.148;14.068;2022-09-09T03:41:26;3.20;;;1.95;;
52318;SDS011;38258;51.148;14.068;2022-09-09T03:43:53;3.17;;;1.55;;
52318;SDS011;38258;51.148;14.068;2022-09-09T03:46:23;2.35;;;1.65;;
52318;SDS011;38258;51.148;14.068;2022-09-09T03:48:51;2.58;;;1.80;;
52318;SDS011;38258;51.148;14.068;2022-09-09T03:51:20;3.38;;;1.90;;
52318;SDS011;38258;51.148;14.068;2022-09-09T03:53:47;2.28;;;1.65;;
52318;SDS011;38258;51.148;14.068;2022-09-09T03:56:14;2.22;;;1.50;;
52318;SDS011;38258;51.148;14.068;2022-09-09T03:58:41;2.80;;;1.90;;
52318;SDS011;38258;51.148;14.068;2022-09-09T04:01:10;3.53;;;1.98;;
52318;SDS011;38258;51.148;14.068;2022-09-09T04:03:40;3.03;;;1.80;;
52318;SDS011;38258;51.148;14.068;2022-09-09T04:06:08;1.98;;;1.63;;
52318;SDS011;38258;51.148;14.068;2022-09-09T04:08:39;2.22;;;1.50;;
52318;SDS011;38258;51.148;14.068;2022-09-09T04:11:06;2.72;;;1.60;;
52318;SDS011;38258;51.148;14.068;2022-09-09T04:13:36;2.80;;;1.70;;
52318;SDS011;38258;51.148;14.068;2022-09-09T04:16:05;3.47;;;1.70;;
52318;SDS011;38258;51.148;14.068;2022-09-09T04:18:34;2.88;;;1.80;;
52318;SDS011;38258;51.148;14.068;2022-09-09T04:21:01;3.63;;;1.95;;
52318;SDS011;38258;51.148;14.068;2022-09-09T04:23:30;2.72;;;1.77;;
52318;SDS011;38258;51.148;14.068;2022-09-09T04:25:59;4.72;;;1.95;;
52318;SDS011;38258;51.148;14.068;2022-09-09T04:28:27;2.75;;;1.70;;
52318;SDS011;38258;51.148;14.068;2022-09-09T04:30:55;3.08;;;2.00;;
52318;SDS011;38258;51.148;14.068;2022-09-09T04:33:23;2.30;;;1.58;;
52318;SDS011;38258;51.148;14.068;2022-09-09T04:35:52;3.33;;;1.90;;
52318;SDS011;38258;51.148;14.068;2022-09-09T04:38:21;2.67;;;1.80;;
52318;SDS011;38258;51.148;14.068;2022-09-09T04:40:49;2.80;;;1.85;;
52318;SDS011;38258;51.148;14.068;2022-09-09T04:43:20;2.72;;;1.70;;
52318;SDS011;38258;51.148;14.068;2022-09-09T04:45:49;3.65;;;2.13;;
52318;SDS011;38258;51.148;14.068;2022-09-09T04:48:19;3.13;;;2.00;;
52318;SDS011;38258;51.148;14.068;2022-09-09T04:50:54;3.38;;;2.05;;
52318;SDS011;38258;51.148;14.068;2022-09-09T04:53:22;2.90;;;1.90;;
52318;SDS011;38258;51.148;14.068;2022-09-09T04:55:51;3.72;;;2.08;;
52318;SDS011;38258;51.148;14.068;2022-09-09T04:58:18;4.45;;;2.20;;
52318;SDS011;38258;51.148;14.068;2022-09-09T05:00:49;3.75;;;2.25;;
52318;SDS011;38258;51.148;14.068;2022-09-09T05:03:17;2.67;;;1.88;;
52318;SDS011;38258;51.148;14.068;2022-09-09T05:05:44;2.70;;;2.10;;
52318;SDS011;38258;51.148;14.068;2022-09-09T05:08:12;3.28;;;1.98;;
52318;SDS011;38258;51.148;14.068;2022-09-09T05:10:40;3.17;;;2.05;;
52318;SDS011;38258;51.148;14.068;2022-09-09T05:13:08;2.90;;;1.92;;
52318;SDS011;38258;51.148;14.068;2022-09-09T05:15:35;4.32;;;1.92;;
52318;SDS011;38258;51.148;14.068;2022-09-09T05:18:04;3.10;;;2.10;;
52318;SDS011;38258;51.148;14.068;2022-09-09T05:20:31;3.22;;;2.20;;
52318;SDS011;38258;51.148;14.068;2022-09-09T05:23:00;3.33;;;2.40;;
52318;SDS011;38258;51.148;14.068;2022-09-09T05:25:29;4.55;;;2.00;;
52318;SDS011;38258;51.148;14.068;2022-09-09T05:27:57;3.05;;;1.63;;
52318;SDS011;38258;51.148;14.068;2022-09-09T05:30:25;3.70;;;1.95;;
52318;SDS011;38258;51.148;14.068;2022-09-09T05:32:52;2.67;;;1.80;;
52318;SDS011;38258;51.148;14.068;2022-09-09T05:35:23;3.33;;;1.90;;
52318;SDS011;38258;51.148;14.068;2022-09-09T05:37:50;4.25;;;2.10;;
52318;SDS011;38258;51.148;14.068;2022-09-09T05:40:18;3.60;;;2.03;;
52318;SDS011;38258;51.148;14.068;2022-09-09T05:42:47;3.00;;;2.00;;
52318;SDS011;38258;51.148;14.068;2022-09-09T05:45:14;2.30;;;1.83;;
52318;SDS011;38258;51.148;14.068;2022-09-09T05:47:41;3.65;;;2.00;;
52318;SDS011;38258;51.148;14.068;2022-09-09T05:50:10;2.60;;;1.92;;
52318;SDS011;38258;51.148;14.068;2022-09-09T05:52:40;2.88;;;2.10;;
52318;SDS011;38258;51.148;14.068;2022-09-09T05:55:08;3.15;;;2.10;;
52318;SDS011;38258;51.148;14.068;2022-09-09T05:57:35;3.08;;;1.95;;
52318;SDS011;38258;51.148;14.068;2022-09-09T06:00:03;2.85;;;2.00;;
52318;SDS011;38258;51.148;14.068;2022-09-09T06:02:39;3.58;;;2.10;;
52318;SDS011;38258;51.148;14.068;2022-09-09T06:05:08;2.78;;;2.00;;
52318;SDS011;38258;51.148;14.068;2022-09-09T06:07:36;3.40;;;1.83;;
52318;SDS011;38258;51.148;14.068;2022-09-09T06:10:09;3.97;;;2.05;;
52318;SDS011;38258;51.148;14.068;2022-09-09T06:12:39;2.53;;;1.73;;
52318;SDS011;38258;51.148;14.068;2022-09-09T06:15:06;2.95;;;2.08;;
52318;SDS011;38258;51.148;14.068;2022-09-09T06:17:34;3.25;;;2.10;;
52318;SDS011;38258;51.148;14.068;2022-09-09T06:20:02;3.58;;;2.47;;
52318;SDS011;38258;51.148;14.068;2022-09-09T06:22:30;2.25;;;1.70;;
52318;SDS011;38258;51.148;14.068;2022-09-09T06:24:57;3.95;;;1.85;;
52318;SDS011;38258;51.148;14.068;2022-09-09T06:27:28;2.85;;;1.90;;
52318;SDS011;38258;51.148;14.068;2022-09-09T06:29:55;3.97;;;2.00;;
52318;SDS011;38258;51.148;14.068;2022-09-09T06:32:22;3.13;;;1.70;;
52318;SDS011;38258;51.148;14.068;2022-09-09T06:34:49;3.10;;;1.98;;
52318;SDS011;38258;51.148;14.068;2022-09-09T06:37:16;4.72;;;2.20;;
52318;SDS011;38258;51.148;14.068;2022-09-09T06:39:47;2.45;;;1.85;;
52318;SDS011;38258;51.148;14.068;2022-09-09T06:42:13;4.43;;;2.10;;
52318;SDS011;38258;51.148;14.068;2022-09-09T06:44:54;3.03;;;1.95;;
52318;SDS011;38258;51.148;14.068;2022-09-09T06:47:41;3.13;;;1.80;;
52318;SDS011;38258;51.148;14.068;2022-09-09T06:50:08;2.88;;;1.95;;
52318;SDS011;38258;51.148;14.068;2022-09-09T06:52:36;3.70;;;1.95;;
52318;SDS011;38258;51.148;14.068;2022-09-09T06:55:04;3.38;;;1.80;;
52318;SDS011;38258;51.148;14.068;2022-09-09T06:57:33;2.60;;;1.70;;
52318;SDS011;38258;51.148;14.068;2022-09-09T07:00:02;2.10;;;1.60;;
52318;SDS011;38258;51.148;14.068;2022-09-09T07:02:30;2.40;;;1.77;;
52318;SDS011;38258;51.148;14.068;2022-09-09T07:04:57;3.40;;;1.95;;
52318;SDS011;38258;51.148;14.068;2022-09-09T07:07:25;2.97;;;1.80;;
52318;SDS011;38258;51.148;14.068;2022-09-09T07:09:52;4.47;;;1.73;;
52318;SDS011;38258;51.148;14.068;2022-09-09T07:12:19;3.72;;;2.00;;
52318;SDS011;38258;51.148;14.068;2022-09-09T07:14:53;2.42;;;1.67;;
52318;SDS011;38258;51.148;14.068;2022-09-09T07:17:21;2.17;;;1.65;;
52318;SDS011;38258;51.148;14.068;2022-09-09T07:19:48;3.03;;;1.60;;
52318;SDS011;38258;51.148;14.068;2022-09-09T07:22:16;2.40;;;1.63;;
52318;SDS011;38258;51.148;14.068;2022-09-09T07:24:43;1.73;;;1.40;;
52318;SDS011;38258;51.148;14.068;2022-09-09T07:27:12;2.58;;;1.45;;
52318;SDS011;38258;51.148;14.068;2022-09-09T07:29:39;2.90;;;1.58;;
52318;SDS011;38258;51.148;14.068;2022-09-09T07:32:07;2.17;;;1.50;;
52318;SDS011;38258;51.148;14.068;2022-09-09T07:34:37;3.58;;;1.50;;
52318;SDS011;38258;51.148;14.068;2022-09-09T07:37:05;1.92;;;1.40;;
52318;SDS011;38258;51.148;14.068;2022-09-09T07:39:33;3.35;;;1.45;;
52318;SDS011;38258;51.148;14.068;2022-09-09T07:42:00;2.15;;;1.40;;
52318;SDS011;38258;51.148;14.068;2022-09-09T07:44:27;1.75;;;1.40;;
52318;SDS011;38258;51.148;14.068;2022-09-09T07:47:08;1.30;;;1.20;;
52318;SDS011;38258;51.148;14.068;2022-09-09T07:49:40;1.90;;;1.30;;
52318;SDS011;38258;51.148;14.068;2022-09-09T07:52:08;2.17;;;1.20;;
52318;SDS011;38258;51.148;14.068;2022-09-09T07:54:39;1.98;;;1.40;;
52318;SDS011;38258;51.148;14.068;2022-09-09T07:57:06;2.63;;;1.50;;
52318;SDS011;38258;51.148;14.068;2022-09-09T07:59:35;2.33;;;1.52;;
52318;SDS011;38258;51.148;14.068;2022-09-09T08:02:02;1.80;;;1.30;;
52318;SDS011;38258;51.148;14.068;2022-09-09T08:04:32;1.55;;;1.40;;
52318;SDS011;38258;51.148;14.068;2022-09-09T08:07:00;2.15;;;1.40;;
52318;SDS011;38258;51.148;14.068;2022-09-09T08:09:31;2.85;;;1.65;;
52318;SDS011;38258;51.148;14.068;2022-09-09T08:12:25;2.70;;;1.67;;
52318;SDS011;38258;51.148;14.068;2022-09-09T08:14:52;2.10;;;1.50;;
52318;SDS011;38258;51.148;14.068;2022-09-09T08:17:20;2.80;;;1.38;;
52318;SDS011;38258;51.148;14.068;2022-09-09T08:19:47;2.55;;;1.33;;
52318;SDS011;38258;51.148;14.068;2022-09-09T08:22:21;3.25;;;1.30;;
52318;SDS011;38258;51.148;14.068;2022-09-09T08:24:49;2.65;;;1.20;;
52318;SDS011;38258;51.148;14.068;2022-09-09T08:27:17;1.50;;;1.27;;
52318;SDS011;38258;51.148;14.068;2022-09-09T08:29:44;3.03;;;1.23;;
52318;SDS011;38258;51.148;14.068;2022-09-09T08:32:11;1.70;;;1.20;;
52318;SDS011;38258;51.148;14.068;2022-09-09T08:34:39;3.85;;;1.40;;
52318;SDS011;38258;51.148;14.068;2022-09-09T08:37:12;3.38;;;1.35;;
52318;SDS011;38258;51.148;14.068;2022-09-09T08:39:42;2.70;;;1.20;;
52318;SDS011;38258;51.148;14.068;2022-09-09T08:42:15;4.78;;;1.35;;
52318;SDS011;38258;51.148;14.068;2022-09-09T08:44:57;2.63;;;1.40;;
52318;SDS011;38258;51.148;14.068;2022-09-09T08:47:38;2.85;;;1.15;;
52318;SDS011;38258;51.148;14.068;2022-09-09T08:50:17;1.98;;;1.05;;
52318;SDS011;38258;51.148;14.068;2022-09-09T08:52:53;1.45;;;1.00;;
52318;SDS011;38258;51.148;14.068;2022-09-09T08:55:30;2.63;;;1.15;;
52318;SDS011;38258;51.148;14.068;2022-09-09T08:58:06;2.72;;;1.10;;
52318;SDS011;38258;51.148;14.068;2022-09-09T09:00:42;2.08;;;1.17;;
52318;SDS011;38258;51.148;14.068;2022-09-09T09:03:21;2.08;;;1.38;;
52318;SDS011;38258;51.148;14.068;2022-09-09T09:05:57;1.63;;;1.20;;
52318;SDS011;38258;51.148;14.068;2022-09-09T09:08:35;1.73;;;1.20;;
52318;SDS011;38258;51.148;14.068;2022-09-09T09:11:10;1.20;;;1.10;;
52318;SDS011;38258;51.148;14.068;2022-09-09T09:13:38;2.78;;;1.60;;
52318;SDS011;38258;51.148;14.068;2022-09-09T09:16:17;1.48;;;1.10;;
52318;SDS011;38258;51.148;14.068;2022-09-09T09:18:49;2.55;;;1.30;;
52318;SDS011;38258;51.148;14.068;2022-09-09T09:21:19;1.77;;;1.27;;
52318;SDS011;38258;51.148;14.068;2022-09-09T09:23:54;2.20;;;1.30;;
52318;SDS011;38258;51.148;14.068;2022-09-09T09:26:30;2.55;;;1.23;;
52318;SDS011;38258;51.148;14.068;2022-09-09T09:28:59;1.30;;;1.20;;
52318;SDS011;38258;51.148;14.068;2022-09-09T09:31:34;2.10;;;1.17;;
52318;SDS011;38258;51.148;14.068;2022-09-09T09:34:01;1.38;;;1.10;;
52318;SDS011;38258;51.148;14.068;2022-09-09T09:36:33;2.70;;;1.10;;
52318;SDS011;38258;51.148;14.068;2022-09-09T09:39:05;2.67;;;1.00;;
52318;SDS011;38258;51.148;14.068;2022-09-09T09:41:36;1.30;;;1.00;;
52318;SDS011;38258;51.148;14.068;2022-09-09T09:44:06;1.10;;;0.98;;
52318;SDS011;38258;51.148;14.068;2022-09-09T09:46:48;2.40;;;1.23;;
52318;SDS011;38258;51.148;14.068;2022-09-09T09:49:15;2.00;;;1.17;;
52318;SDS011;38258;51.148;14.068;2022-09-09T09:51:43;3.53;;;1.20;;
52318;SDS011;38258;51.148;14.068;2022-09-09T09:54:15;1.48;;;1.13;;
52318;SDS011;38258;51.148;14.068;2022-09-09T09:56:54;2.83;;;1.35;;
52318;SDS011;38258;51.148;14.068;2022-09-09T09:59:22;1.90;;;1.25;;
52318;SDS011;38258;51.148;14.068;2022-09-09T10:02:05;1.23;;;0.90;;
52318;SDS011;38258;51.148;14.068;2022-09-09T10:04:40;2.67;;;1.20;;
52318;SDS011;38258;51.148;14.068;2022-09-09T10:07:09;1.45;;;1.20;;
52318;SDS011;38258;51.148;14.068;2022-09-09T10:09:37;1.98;;;1.23;;
52318;SDS011;38258;51.148;14.068;2022-09-09T10:12:08;2.70;;;1.30;;
52318;SDS011;38258;51.148;14.068;2022-09-09T10:14:47;1.90;;;1.20;;
52318;SDS011;38258;51.148;14.068;2022-09-09T10:17:23;3.20;;;1.30;;
52318;SDS011;38258;51.148;14.068;2022-09-09T10:20:04;3.08;;;1.30;;
52318;SDS011;38258;51.148;14.068;2022-09-09T10:22:50;3.60;;;1.23;;
52318;SDS011;38258;51.148;14.068;2022-09-09T10:25:30;1.90;;;1.30;;
52318;SDS011;38258;51.148;14.068;2022-09-09T10:28:17;1.80;;;1.30;;
52318;SDS011;38258;51.148;14.068;2022-09-09T10:31:00;1.90;;;1.20;;
52318;SDS011;38258;51.148;14.068;2022-09-09T10:33:37;1.52;;;1.13;;
52318;SDS011;38258;51.148;14.068;2022-09-09T10:36:13;1.70;;;1.10;;
52318;SDS011;38258;51.148;14.068;2022-09-09T10:38:46;1.92;;;1.10;;
52318;SDS011;38258;51.148;14.068;2022-09-09T10:41:23;2.35;;;1.10;;
52318;SDS011;38258;51.148;14.068;2022-09-09T10:44:17;2.75;;;1.10;;
52318;SDS011;38258;51.148;14.068;2022-09-09T10:46:55;1.58;;;1.10;;
52318;SDS011;38258;51.148;14.068;2022-09-09T10:55:09;2.05;;;1.00;;
52318;SDS011;38258;51.148;14.068;2022-09-09T10:57:40;1.15;;;1.05;;
52318;SDS011;38258;51.148;14.068;2022-09-09T11:00:15;2.00;;;1.00;;
52318;SDS011;38258;51.148;14.068;2022-09-09T11:02:44;1.08;;;0.90;;
52318;SDS011;38258;51.148;14.068;2022-09-09T11:05:18;1.10;;;1.00;;
52318;SDS011;38258;51.148;14.068;2022-09-09T11:07:49;1.95;;;1.10;;
52318;SDS011;38258;51.148;14.068;2022-09-09T11:10:22;1.38;;;1.00;;
52318;SDS011;38258;51.148;14.068;2022-09-09T11:15:29;2.65;;;1.10;;
52318;SDS011;38258;51.148;14.068;2022-09-09T11:18:03;1.10;;;0.98;;
52318;SDS011;38258;51.148;14.068;2022-09-09T11:20:32;1.63;;;1.10;;
52318;SDS011;38258;51.148;14.068;2022-09-09T11:23:01;2.78;;;1.00;;
52318;SDS011;38258;51.148;14.068;2022-09-09T11:25:33;1.92;;;1.13;;
52318;SDS011;38258;51.148;14.068;2022-09-09T11:28:09;2.53;;;1.10;;
52318;SDS011;38258;51.148;14.068;2022-09-09T11:30:52;2.25;;;1.15;;
52318;SDS011;38258;51.148;14.068;2022-09-09T11:36:41;1.67;;;1.00;;
52318;SDS011;38258;51.148;14.068;2022-09-09T11:39:28;2.72;;;0.90;;
52318;SDS011;38258;51.148;14.068;2022-09-09T11:42:05;1.48;;;1.08;;
52318;SDS011;38258;51.148;14.068;2022-09-09T11:44:33;1.10;;;1.00;;
52318;SDS011;38258;51.148;14.068;2022-09-09T11:47:02;1.92;;;1.00;;
52318;SDS011;38258;51.148;14.068;2022-09-09T11:49:29;1.60;;;1.27;;
52318;SDS011;38258;51.148;14.068;2022-09-09T11:52:10;2.42;;;1.55;;
52318;SDS011;38258;51.148;14.068;2022-09-09T11:54:44;4.15;;;1.20;;
52318;SDS011;38258;51.148;14.068;2022-09-09T11:57:17;1.38;;;1.10;;
52318;SDS011;38258;51.148;14.068;2022-09-09T11:59:53;1.55;;;1.00;;
52318;SDS011;38258;51.148;14.068;2022-09-09T12:02:23;2.60;;;1.00;;
52318;SDS011;38258;51.148;14.068;2022-09-09T12:04:56;1.80;;;1.20;;
52318;SDS011;38258;51.148;14.068;2022-09-09T12:07:34;2.25;;;1.15;;
52318;SDS011;38258;51.148;14.068;2022-09-09T12:10:05;1.92;;;1.05;;
52318;SDS011;38258;51.148;14.068;2022-09-09T12:12:48;1.38;;;1.10;;
52318;SDS011;38258;51.148;14.068;2022-09-09T12:15:23;2.22;;;1.10;;
52318;SDS011;38258;51.148;14.068;2022-09-09T12:17:56;2.67;;;1.20;;
52318;SDS011;38258;51.148;14.068;2022-09-09T12:20:27;2.28;;;1.20;;
52318;SDS011;38258;51.148;14.068;2022-09-09T12:23:05;1.92;;;0.98;;
52318;SDS011;38258;51.148;14.068;2022-09-09T12:25:52;2.57;;;1.10;;
52318;SDS011;38258;51.148;14.068;2022-09-09T12:28:28;1.60;;;1.30;;
52318;SDS011;38258;51.148;14.068;2022-09-09T12:31:14;1.42;;;1.20;;
52318;SDS011;38258;51.148;14.068;2022-09-09T12:33:48;2.25;;;1.33;;
52318;SDS011;38258;51.148;14.068;2022-09-09T12:36:18;1.80;;;1.23;;
52318;SDS011;38258;51.148;14.068;2022-09-09T12:38:52;3.00;;;1.70;;
52318;SDS011;38258;51.148;14.068;2022-09-09T12:41:22;1.63;;;1.30;;
52318;SDS011;38258;51.148;14.068;2022-09-09T12:43:51;2.13;;;1.42;;
52318;SDS011;38258;51.148;14.068;2022-09-09T12:46:21;3.25;;;1.65;;
52318;SDS011;38258;51.148;14.068;2022-09-09T12:48:57;4.78;;;1.60;;
52318;SDS011;38258;51.148;14.068;2022-09-09T12:51:26;3.42;;;1.60;;
52318;SDS011;38258;51.148;14.068;2022-09-09T12:53:55;3.40;;;1.35;;
52318;SDS011;38258;51.148;14.068;2022-09-09T12:56:24;2.63;;;1.55;;
52318;SDS011;38258;51.148;14.068;2022-09-09T12:58:53;2.67;;;1.50;;
52318;SDS011;38258;51.148;14.068;2022-09-09T13:01:24;2.08;;;1.50;;
52318;SDS011;38258;51.148;14.068;2022-09-09T13:03:52;2.70;;;1.70;;
52318;SDS011;38258;51.148;14.068;2022-09-09T13:06:21;2.08;;;1.40;;
52318;SDS011;38258;51.148;14.068;2022-09-09T13:08:54;2.60;;;1.60;;
52318;SDS011;38258;51.148;14.068;2022-09-09T13:11:23;3.03;;;1.60;;
52318;SDS011;38258;51.148;14.068;2022-09-09T13:13:54;3.58;;;1.73;;
52318;SDS011;38258;51.148;14.068;2022-09-09T13:16:23;3.17;;;1.63;;
52318;SDS011;38258;51.148;14.068;2022-09-09T13:18:55;2.85;;;1.50;;
52318;SDS011;38258;51.148;14.068;2022-09-09T13:21:32;1.88;;;1.30;;
52318;SDS011;38258;51.148;14.068;2022-09-09T13:24:00;1.95;;;1.40;;
52318;SDS011;38258;51.148;14.068;2022-09-09T13:26:29;4.28;;;1.80;;
52318;SDS011;38258;51.148;14.068;2022-09-09T13:29:07;1.92;;;1.50;;
52318;SDS011;38258;51.148;14.068;2022-09-09T13:31:42;2.58;;;1.30;;
52318;SDS011;38258;51.148;14.068;2022-09-09T13:34:11;2.88;;;1.40;;
52318;SDS011;38258;51.148;14.068;2022-09-09T13:36:40;3.50;;;1.63;;
52318;SDS011;38258;51.148;14.068;2022-09-09T13:39:12;3.05;;;1.40;;
52318;SDS011;38258;51.148;14.068;2022-09-09T13:41:43;1.88;;;1.38;;
52318;SDS011;38258;51.148;14.068;2022-09-09T13:44:14;1.50;;;1.30;;
52318;SDS011;38258;51.148;14.068;2022-09-09T13:47:02;1.95;;;1.27;;
52318;SDS011;38258;51.148;14.068;2022-09-09T13:52:08;1.90;;;1.40;;
52318;SDS011;38258;51.148;14.068;2022-09-09T13:54:36;2.15;;;1.20;;
52318;SDS011;38258;51.148;14.068;2022-09-09T13:57:03;2.08;;;1.30;;
52318;SDS011;38258;51.148;14.068;2022-09-09T13:59:30;1.67;;;1.20;;
52318;SDS011;38258;51.148;14.068;2022-09-09T14:02:02;2.35;;;1.30;;
52318;SDS011;38258;51.148;14.068;2022-09-09T14:04:29;2.20;;;1.20;;
52318;SDS011;38258;51.148;14.068;2022-09-09T14:06:55;1.98;;;1.23;;
52318;SDS011;38258;51.148;14.068;2022-09-09T14:09:23;1.63;;;1.10;;
52318;SDS011;38258;51.148;14.068;2022-09-09T14:11:49;2.22;;;1.40;;
52318;SDS011;38258;51.148;14.068;2022-09-09T14:14:16;2.15;;;1.17;;
52318;SDS011;38258;51.148;14.068;2022-09-09T14:16:42;3.42;;;1.25;;
52318;SDS011;38258;51.148;14.068;2022-09-09T14:19:10;2.58;;;1.30;;
52318;SDS011;38258;51.148;14.068;2022-09-09T14:21:37;1.40;;;1.30;;
52318;SDS011;38258;51.148;14.068;2022-09-09T14:24:04;1.85;;;1.10;;
52318;SDS011;38258;51.148;14.068;2022-09-09T14:26:30;1.80;;;1.20;;
52318;SDS011;38258;51.148;14.068;2022-09-09T14:28:57;2.67;;;1.33;;
52318;SDS011;38258;51.148;14.068;2022-09-09T14:31:25;2.67;;;1.40;;
52318;SDS011;38258;51.148;14.068;2022-09-09T14:33:52;1.52;;;1.20;;
52318;SDS011;38258;51.148;14.068;2022-09-09T14:36:20;3.70;;;1.40;;
52318;SDS011;38258;51.148;14.068;2022-09-09T14:38:46;2.45;;;1.52;;
52318;SDS011;38258;51.148;14.068;2022-09-09T14:41:14;1.90;;;1.17;;
52318;SDS011;38258;51.148;14.068;2022-09-09T14:43:42;3.88;;;1.70;;
52318;SDS011;38258;51.148;14.068;2022-09-09T14:46:10;2.15;;;1.70;;
52318;SDS011;38258;51.148;14.068;2022-09-09T14:48:37;2.47;;;1.42;;
52318;SDS011;38258;51.148;14.068;2022-09-09T14:51:06;2.95;;;1.60;;
52318;SDS011;38258;51.148;14.068;2022-09-09T14:53:35;4.03;;;1.80;;
52318;SDS011;38258;51.148;14.068;2022-09-09T14:56:05;1.75;;;1.30;;
52318;SDS011;38258;51.148;14.068;2022-09-09T14:58:33;1.40;;;1.30;;
52318;SDS011;38258;51.148;14.068;2022-09-09T15:01:03;2.45;;;1.40;;
52318;SDS011;38258;51.148;14.068;2022-09-09T15:03:30;1.67;;;1.33;;
52318;SDS011;38258;51.148;14.068;2022-09-09T15:05:57;1.48;;;1.27;;
52318;SDS011;38258;51.148;14.068;2022-09-09T15:08:24;3.28;;;1.48;;
52318;SDS011;38258;51.148;14.068;2022-09-09T15:10:58;2.50;;;1.50;;
52318;SDS011;38258;51.148;14.068;2022-09-09T15:13:25;3.45;;;1.55;;
52318;SDS011;38258;51.148;14.068;2022-09-09T15:15:51;3.00;;;1.40;;